sensor_id;sensor_type;location;lat;lon;timestamp;P1;durP1;ratioP1;P2;durP2;ratioP2
40022;SDS011;25713;-35.352;149.036;2023-07-09T00:02:26;0.90;;;0.40;;
40022;SDS011;25713;-35.352;149.036;2023-07-09T00:04:59;0.70;;;0.47;;
40022;SDS011;25713;-35.352;149.036;2023-07-09T00:07:30;1.10;;;0.70;;
40022;SDS011;25713;-35.352;149.036;2023-07-09T00:10:05;4.32;;;0.60;;
40022;SDS011;25713;-35.352;149.036;2023-07-09T00:12:47;0.57;;;0.30;;
40022;SDS011;25713;-35.352;149.036;2023-07-09T00:15:17;1.00;;;0.50;;
40022;SDS011;25713;-35.352;149.036;2023-07-09T00:17:46;1.17;;;0.40;;
40022;SDS011;25713;-35.352;149.036;2023-07-09T00:20:18;0.77;;;0.52;;
40022;SDS011;25713;-35.352;149.036;2023-07-09T00:22:48;3.42;;;0.68;;
40022;SDS011;25713;-35.352;149.036;2023-07-09T00:25:18;0.95;;;0.47;;
40022;SDS011;25713;-35.352;149.036;2023-07-09T00:27:49;0.25;;;0.25;;
40022;SDS011;25713;-35.352;149.036;2023-07-09T00:30:19;0.30;;;0.20;;
40022;SDS011;25713;-35.352;149.036;2023-07-09T00:32:50;2.03;;;0.30;;
40022;SDS011;25713;-35.352;149.036;2023-07-09T00:35:22;2.92;;;0.70;;
40022;SDS011;25713;-35.352;149.036;2023-07-09T00:37:52;0.55;;;0.20;;
40022;SDS011;25713;-35.352;149.036;2023-07-09T00:40:22;0.65;;;0.25;;
40022;SDS011;25713;-35.352;149.036;2023-07-09T00:42:53;0.50;;;0.20;;
40022;SDS011;25713;-35.352;149.036;2023-07-09T00:45:23;0.43;;;0.20;;
40022;SDS011;25713;-35.352;149.036;2023-07-09T00:47:54;1.45;;;0.20;;
40022;SDS011;25713;-35.352;149.036;2023-07-09T00:50:35;0.30;;;0.20;;
40022;SDS011;25713;-35.352;149.036;2023-07-09T00:53:12;2.60;;;0.30;;
40022;SDS011;25713;-35.352;149.036;2023-07-09T00:55:48;0.60;;;0.30;;
40022;SDS011;25713;-35.352;149.036;2023-07-09T00:58:20;0.20;;;0.20;;
40022;SDS011;25713;-35.352;149.036;2023-07-09T01:00:53;0.52;;;0.30;;
40022;SDS011;25713;-35.352;149.036;2023-07-09T01:03:27;0.45;;;0.20;;
40022;SDS011;25713;-35.352;149.036;2023-07-09T01:06:04;0.20;;;0.20;;
40022;SDS011;25713;-35.352;149.036;2023-07-09T01:08:34;0.55;;;0.30;;
40022;SDS011;25713;-35.352;149.036;2023-07-09T01:11:14;2.55;;;0.20;;
40022;SDS011;25713;-35.352;149.036;2023-07-09T01:13:50;0.20;;;0.20;;
40022;SDS011;25713;-35.352;149.036;2023-07-09T01:18:52;0.28;;;0.10;;
40022;SDS011;25713;-35.352;149.036;2023-07-09T01:21:25;0.30;;;0.10;;
40022;SDS011;25713;-35.352;149.036;2023-07-09T01:23:55;8.57;;;1.65;;
40022;SDS011;25713;-35.352;149.036;2023-07-09T01:26:26;0.25;;;0.10;;
40022;SDS011;25713;-35.352;149.036;2023-07-09T01:28:56;0.05;;;0.05;;
40022;SDS011;25713;-35.352;149.036;2023-07-09T01:31:25;0.40;;;0.10;;
40022;SDS011;25713;-35.352;149.036;2023-07-09T01:33:55;0.17;;;0.10;;
40022;SDS011;25713;-35.352;149.036;2023-07-09T01:36:28;0.10;;;0.10;;
40022;SDS011;25713;-35.352;149.036;2023-07-09T01:38:57;0.10;;;0.00;;
40022;SDS011;25713;-35.352;149.036;2023-07-09T01:41:27;0.00;;;0.00;;
40022;SDS011;25713;-35.352;149.036;2023-07-09T01:43:57;0.45;;;0.10;;
40022;SDS011;25713;-35.352;149.036;2023-07-09T01:46:26;0.10;;;0.10;;
40022;SDS011;25713;-35.352;149.036;2023-07-09T01:48:56;0.10;;;0.10;;
40022;SDS011;25713;-35.352;149.036;2023-07-09T01:51:27;0.00;;;0.00;;
40022;SDS011;25713;-35.352;149.036;2023-07-09T01:53:58;0.40;;;0.00;;
40022;SDS011;25713;-35.352;149.036;2023-07-09T01:56:27;0.00;;;0.00;;
40022;SDS011;25713;-35.352;149.036;2023-07-09T01:58:57;0.00;;;0.00;;
40022;SDS011;25713;-35.352;149.036;2023-07-09T02:01:27;0.55;;;0.10;;
40022;SDS011;25713;-35.352;149.036;2023-07-09T02:03:56;0.20;;;0.10;;
40022;SDS011;25713;-35.352;149.036;2023-07-09T02:06:29;0.00;;;0.00;;
40022;SDS011;25713;-35.352;149.036;2023-07-09T02:08:58;1.55;;;0.00;;
40022;SDS011;25713;-35.352;149.036;2023-07-09T02:11:29;0.00;;;0.00;;
40022;SDS011;25713;-35.352;149.036;2023-07-09T02:13:58;0.00;;;0.00;;
40022;SDS011;25713;-35.352;149.036;2023-07-09T02:16:28;0.60;;;0.10;;
40022;SDS011;25713;-35.352;149.036;2023-07-09T02:18:57;0.10;;;0.10;;
40022;SDS011;25713;-35.352;149.036;2023-07-09T02:21:29;0.00;;;0.00;;
40022;SDS011;25713;-35.352;149.036;2023-07-09T02:23:59;0.03;;;0.03;;
40022;SDS011;25713;-35.352;149.036;2023-07-09T02:26:28;0.13;;;0.10;;
40022;SDS011;25713;-35.352;149.036;2023-07-09T02:28:58;0.20;;;0.10;;
40022;SDS011;25713;-35.352;149.036;2023-07-09T02:31:29;1.40;;;0.10;;
40022;SDS011;25713;-35.352;149.036;2023-07-09T02:33:59;0.00;;;0.00;;
40022;SDS011;25713;-35.352;149.036;2023-07-09T02:36:32;0.00;;;0.00;;
40022;SDS011;25713;-35.352;149.036;2023-07-09T02:39:02;0.00;;;0.00;;
40022;SDS011;25713;-35.352;149.036;2023-07-09T02:41:31;0.10;;;0.10;;
40022;SDS011;25713;-35.352;149.036;2023-07-09T02:44:01;0.10;;;0.10;;
40022;SDS011;25713;-35.352;149.036;2023-07-09T02:46:31;0.00;;;0.00;;
40022;SDS011;25713;-35.352;149.036;2023-07-09T02:49:02;0.35;;;0.10;;
40022;SDS011;25713;-35.352;149.036;2023-07-09T02:51:37;0.00;;;0.00;;
40022;SDS011;25713;-35.352;149.036;2023-07-09T02:54:07;0.13;;;0.03;;
40022;SDS011;25713;-35.352;149.036;2023-07-09T02:56:37;0.00;;;0.00;;
40022;SDS011;25713;-35.352;149.036;2023-07-09T02:59:06;0.00;;;0.00;;
40022;SDS011;25713;-35.352;149.036;2023-07-09T03:01:36;2.90;;;0.25;;
40022;SDS011;25713;-35.352;149.036;2023-07-09T03:04:07;0.32;;;0.10;;
40022;SDS011;25713;-35.352;149.036;2023-07-09T03:06:40;1.05;;;0.10;;
40022;SDS011;25713;-35.352;149.036;2023-07-09T03:09:09;0.20;;;0.20;;
40022;SDS011;25713;-35.352;149.036;2023-07-09T03:11:39;0.00;;;0.00;;
40022;SDS011;25713;-35.352;149.036;2023-07-09T03:14:08;0.00;;;0.00;;
40022;SDS011;25713;-35.352;149.036;2023-07-09T03:16:38;0.75;;;0.10;;
40022;SDS011;25713;-35.352;149.036;2023-07-09T03:19:08;0.10;;;0.10;;
40022;SDS011;25713;-35.352;149.036;2023-07-09T03:21:41;0.43;;;0.10;;
40022;SDS011;25713;-35.352;149.036;2023-07-09T03:26:38;0.22;;;0.05;;
40022;SDS011;25713;-35.352;149.036;2023-07-09T03:29:08;0.10;;;0.10;;
40022;SDS011;25713;-35.352;149.036;2023-07-09T03:31:37;0.30;;;0.10;;
40022;SDS011;25713;-35.352;149.036;2023-07-09T03:34:07;0.10;;;0.10;;
40022;SDS011;25713;-35.352;149.036;2023-07-09T03:36:37;0.45;;;0.08;;
40022;SDS011;25713;-35.352;149.036;2023-07-09T03:39:09;0.10;;;0.10;;
40022;SDS011;25713;-35.352;149.036;2023-07-09T03:41:39;0.03;;;0.00;;
40022;SDS011;25713;-35.352;149.036;2023-07-09T03:44:09;0.55;;;0.10;;
40022;SDS011;25713;-35.352;149.036;2023-07-09T03:46:38;0.43;;;0.10;;
40022;SDS011;25713;-35.352;149.036;2023-07-09T03:49:08;0.10;;;0.10;;
40022;SDS011;25713;-35.352;149.036;2023-07-09T03:51:37;0.00;;;0.00;;
40022;SDS011;25713;-35.352;149.036;2023-07-09T03:54:10;0.10;;;0.10;;
40022;SDS011;25713;-35.352;149.036;2023-07-09T03:56:40;0.52;;;0.10;;
40022;SDS011;25713;-35.352;149.036;2023-07-09T03:59:09;0.08;;;0.08;;
40022;SDS011;25713;-35.352;149.036;2023-07-09T04:01:39;0.00;;;0.00;;
40022;SDS011;25713;-35.352;149.036;2023-07-09T04:04:08;0.00;;;0.00;;
40022;SDS011;25713;-35.352;149.036;2023-07-09T04:06:38;0.00;;;0.00;;
40022;SDS011;25713;-35.352;149.036;2023-07-09T04:09:11;0.10;;;0.10;;
40022;SDS011;25713;-35.352;149.036;2023-07-09T04:11:41;0.28;;;0.10;;
40022;SDS011;25713;-35.352;149.036;2023-07-09T04:14:10;0.55;;;0.10;;
40022;SDS011;25713;-35.352;149.036;2023-07-09T04:16:40;0.70;;;0.10;;
40022;SDS011;25713;-35.352;149.036;2023-07-09T04:19:09;0.55;;;0.10;;
40022;SDS011;25713;-35.352;149.036;2023-07-09T04:21:39;0.03;;;0.03;;
40022;SDS011;25713;-35.352;149.036;2023-07-09T04:26:40;0.00;;;0.00;;
40022;SDS011;25713;-35.352;149.036;2023-07-09T04:29:09;0.55;;;0.10;;
40022;SDS011;25713;-35.352;149.036;2023-07-09T04:31:39;0.05;;;0.05;;
40022;SDS011;25713;-35.352;149.036;2023-07-09T04:34:09;0.00;;;0.00;;
40022;SDS011;25713;-35.352;149.036;2023-07-09T04:36:38;0.10;;;0.10;;
40022;SDS011;25713;-35.352;149.036;2023-07-09T04:39:11;0.03;;;0.03;;
40022;SDS011;25713;-35.352;149.036;2023-07-09T04:41:41;0.05;;;0.05;;
40022;SDS011;25713;-35.352;149.036;2023-07-09T04:44:10;0.00;;;0.00;;
40022;SDS011;25713;-35.352;149.036;2023-07-09T04:46:40;0.00;;;0.00;;
40022;SDS011;25713;-35.352;149.036;2023-07-09T04:49:10;0.10;;;0.08;;
40022;SDS011;25713;-35.352;149.036;2023-07-09T04:51:39;0.38;;;0.10;;
40022;SDS011;25713;-35.352;149.036;2023-07-09T04:54:12;0.00;;;0.00;;
40022;SDS011;25713;-35.352;149.036;2023-07-09T04:56:42;0.00;;;0.00;;
40022;SDS011;25713;-35.352;149.036;2023-07-09T04:59:12;0.00;;;0.00;;
40022;SDS011;25713;-35.352;149.036;2023-07-09T05:01:41;0.00;;;0.00;;
40022;SDS011;25713;-35.352;149.036;2023-07-09T05:04:11;0.35;;;0.10;;
40022;SDS011;25713;-35.352;149.036;2023-07-09T05:06:40;0.20;;;0.10;;
40022;SDS011;25713;-35.352;149.036;2023-07-09T05:09:12;0.20;;;0.00;;
40022;SDS011;25713;-35.352;149.036;2023-07-09T05:11:41;0.17;;;0.17;;
40022;SDS011;25713;-35.352;149.036;2023-07-09T05:14:11;0.00;;;0.00;;
40022;SDS011;25713;-35.352;149.036;2023-07-09T05:16:40;0.45;;;0.10;;
40022;SDS011;25713;-35.352;149.036;2023-07-09T05:19:11;0.00;;;0.00;;
40022;SDS011;25713;-35.352;149.036;2023-07-09T05:21:40;0.20;;;0.10;;
40022;SDS011;25713;-35.352;149.036;2023-07-09T05:24:12;0.20;;;0.20;;
40022;SDS011;25713;-35.352;149.036;2023-07-09T05:26:41;0.30;;;0.20;;
40022;SDS011;25713;-35.352;149.036;2023-07-09T05:29:11;0.50;;;0.20;;
40022;SDS011;25713;-35.352;149.036;2023-07-09T05:31:40;0.30;;;0.17;;
40022;SDS011;25713;-35.352;149.036;2023-07-09T05:34:10;0.40;;;0.40;;
40022;SDS011;25713;-35.352;149.036;2023-07-09T05:36:39;0.20;;;0.20;;
40022;SDS011;25713;-35.352;149.036;2023-07-09T05:39:09;0.20;;;0.20;;
40022;SDS011;25713;-35.352;149.036;2023-07-09T05:41:40;0.10;;;0.10;;
40022;SDS011;25713;-35.352;149.036;2023-07-09T05:44:10;0.10;;;0.10;;
40022;SDS011;25713;-35.352;149.036;2023-07-09T05:46:39;0.10;;;0.10;;
40022;SDS011;25713;-35.352;149.036;2023-07-09T05:49:09;0.00;;;0.00;;
40022;SDS011;25713;-35.352;149.036;2023-07-09T05:51:38;0.10;;;0.10;;
40022;SDS011;25713;-35.352;149.036;2023-07-09T05:54:08;0.98;;;0.10;;
40022;SDS011;25713;-35.352;149.036;2023-07-09T05:56:39;0.20;;;0.20;;
40022;SDS011;25713;-35.352;149.036;2023-07-09T05:59:09;0.00;;;0.00;;
40022;SDS011;25713;-35.352;149.036;2023-07-09T06:01:38;0.10;;;0.10;;
40022;SDS011;25713;-35.352;149.036;2023-07-09T06:04:08;0.10;;;0.10;;
40022;SDS011;25713;-35.352;149.036;2023-07-09T06:06:37;0.08;;;0.00;;
40022;SDS011;25713;-35.352;149.036;2023-07-09T06:09:07;0.57;;;0.47;;
40022;SDS011;25713;-35.352;149.036;2023-07-09T06:11:37;0.80;;;0.35;;
40022;SDS011;25713;-35.352;149.036;2023-07-09T06:14:08;0.20;;;0.20;;
40022;SDS011;25713;-35.352;149.036;2023-07-09T06:16:38;0.10;;;0.10;;
40022;SDS011;25713;-35.352;149.036;2023-07-09T06:19:08;0.13;;;0.13;;
40022;SDS011;25713;-35.352;149.036;2023-07-09T06:21:38;0.20;;;0.20;;
40022;SDS011;25713;-35.352;149.036;2023-07-09T06:24:08;0.10;;;0.10;;
40022;SDS011;25713;-35.352;149.036;2023-07-09T06:26:37;0.20;;;0.20;;
40022;SDS011;25713;-35.352;149.036;2023-07-09T06:29:09;0.30;;;0.30;;
40022;SDS011;25713;-35.352;149.036;2023-07-09T06:31:39;0.38;;;0.28;;
40022;SDS011;25713;-35.352;149.036;2023-07-09T06:34:08;0.13;;;0.13;;
40022;SDS011;25713;-35.352;149.036;2023-07-09T06:36:38;0.50;;;0.22;;
40022;SDS011;25713;-35.352;149.036;2023-07-09T06:39:07;0.20;;;0.20;;
40022;SDS011;25713;-35.352;149.036;2023-07-09T06:41:37;0.20;;;0.20;;
40022;SDS011;25713;-35.352;149.036;2023-07-09T06:44:29;0.10;;;0.10;;
40022;SDS011;25713;-35.352;149.036;2023-07-09T06:46:59;0.30;;;0.25;;
40022;SDS011;25713;-35.352;149.036;2023-07-09T06:49:28;0.32;;;0.30;;
40022;SDS011;25713;-35.352;149.036;2023-07-09T06:51:58;0.95;;;0.30;;
40022;SDS011;25713;-35.352;149.036;2023-07-09T06:54:28;0.10;;;0.10;;
40022;SDS011;25713;-35.352;149.036;2023-07-09T06:56:59;0.30;;;0.10;;
40022;SDS011;25713;-35.352;149.036;2023-07-09T06:59:29;0.17;;;0.10;;
40022;SDS011;25713;-35.352;149.036;2023-07-09T07:01:58;0.32;;;0.25;;
40022;SDS011;25713;-35.352;149.036;2023-07-09T07:04:28;0.30;;;0.30;;
40022;SDS011;25713;-35.352;149.036;2023-07-09T07:06:58;0.25;;;0.20;;
40022;SDS011;25713;-35.352;149.036;2023-07-09T07:09:28;0.55;;;0.20;;
40022;SDS011;25713;-35.352;149.036;2023-07-09T07:11:59;0.43;;;0.30;;
40022;SDS011;25713;-35.352;149.036;2023-07-09T07:14:29;0.20;;;0.20;;
40022;SDS011;25713;-35.352;149.036;2023-07-09T07:16:58;0.20;;;0.20;;
40022;SDS011;25713;-35.352;149.036;2023-07-09T07:19:28;0.20;;;0.20;;
40022;SDS011;25713;-35.352;149.036;2023-07-09T07:21:58;0.47;;;0.30;;
40022;SDS011;25713;-35.352;149.036;2023-07-09T07:24:27;0.40;;;0.30;;
40022;SDS011;25713;-35.352;149.036;2023-07-09T07:29:55;1.52;;;0.90;;
40022;SDS011;25713;-35.352;149.036;2023-07-09T07:32:35;1.08;;;0.50;;
40022;SDS011;25713;-35.352;149.036;2023-07-09T07:35:07;0.35;;;0.30;;
40022;SDS011;25713;-35.352;149.036;2023-07-09T07:37:36;0.63;;;0.35;;
40022;SDS011;25713;-35.352;149.036;2023-07-09T07:40:06;0.30;;;0.30;;
40022;SDS011;25713;-35.352;149.036;2023-07-09T07:42:39;0.47;;;0.30;;
40022;SDS011;25713;-35.352;149.036;2023-07-09T07:45:09;0.77;;;0.40;;
40022;SDS011;25713;-35.352;149.036;2023-07-09T07:47:42;0.30;;;0.30;;
40022;SDS011;25713;-35.352;149.036;2023-07-09T07:50:12;0.30;;;0.30;;
40022;SDS011;25713;-35.352;149.036;2023-07-09T07:52:42;0.30;;;0.30;;
40022;SDS011;25713;-35.352;149.036;2023-07-09T07:55:12;0.88;;;0.40;;
40022;SDS011;25713;-35.352;149.036;2023-07-09T07:57:44;0.50;;;0.50;;
40022;SDS011;25713;-35.352;149.036;2023-07-09T08:00:14;1.10;;;0.60;;
40022;SDS011;25713;-35.352;149.036;2023-07-09T08:02:44;0.55;;;0.40;;
40022;SDS011;25713;-35.352;149.036;2023-07-09T08:05:14;0.50;;;0.50;;
40022;SDS011;25713;-35.352;149.036;2023-07-09T08:07:43;0.80;;;0.50;;
40022;SDS011;25713;-35.352;149.036;2023-07-09T08:10:13;0.60;;;0.50;;
40022;SDS011;25713;-35.352;149.036;2023-07-09T08:12:44;0.80;;;0.60;;
40022;SDS011;25713;-35.352;149.036;2023-07-09T08:15:14;0.60;;;0.40;;
40022;SDS011;25713;-35.352;149.036;2023-07-09T08:17:44;0.63;;;0.47;;
40022;SDS011;25713;-35.352;149.036;2023-07-09T08:20:13;0.70;;;0.40;;
40022;SDS011;25713;-35.352;149.036;2023-07-09T08:22:43;0.50;;;0.40;;
40022;SDS011;25713;-35.352;149.036;2023-07-09T08:25:13;0.30;;;0.30;;
40022;SDS011;25713;-35.352;149.036;2023-07-09T08:27:44;0.52;;;0.30;;
40022;SDS011;25713;-35.352;149.036;2023-07-09T08:30:14;0.40;;;0.38;;
40022;SDS011;25713;-35.352;149.036;2023-07-09T08:32:43;0.28;;;0.28;;
40022;SDS011;25713;-35.352;149.036;2023-07-09T08:35:13;0.47;;;0.20;;
40022;SDS011;25713;-35.352;149.036;2023-07-09T08:37:44;0.80;;;0.40;;
40022;SDS011;25713;-35.352;149.036;2023-07-09T08:40:14;0.63;;;0.20;;
40022;SDS011;25713;-35.352;149.036;2023-07-09T08:42:49;0.30;;;0.17;;
40022;SDS011;25713;-35.352;149.036;2023-07-09T08:45:26;0.30;;;0.30;;
40022;SDS011;25713;-35.352;149.036;2023-07-09T08:48:04;0.47;;;0.25;;
40022;SDS011;25713;-35.352;149.036;2023-07-09T08:53:07;0.60;;;0.30;;
40022;SDS011;25713;-35.352;149.036;2023-07-09T08:55:43;0.30;;;0.30;;
40022;SDS011;25713;-35.352;149.036;2023-07-09T08:58:20;0.25;;;0.20;;
40022;SDS011;25713;-35.352;149.036;2023-07-09T09:00:54;0.40;;;0.30;;
40022;SDS011;25713;-35.352;149.036;2023-07-09T09:03:28;0.90;;;0.50;;
40022;SDS011;25713;-35.352;149.036;2023-07-09T09:06:09;0.98;;;0.55;;
40022;SDS011;25713;-35.352;149.036;2023-07-09T09:08:41;0.50;;;0.38;;
40022;SDS011;25713;-35.352;149.036;2023-07-09T09:11:18;0.43;;;0.30;;
40022;SDS011;25713;-35.352;149.036;2023-07-09T09:13:58;0.80;;;0.45;;
40022;SDS011;25713;-35.352;149.036;2023-07-09T09:16:35;0.85;;;0.50;;
40022;SDS011;25713;-35.352;149.036;2023-07-09T09:19:11;0.75;;;0.60;;
40022;SDS011;25713;-35.352;149.036;2023-07-09T09:21:50;0.52;;;0.50;;
40022;SDS011;25713;-35.352;149.036;2023-07-09T09:24:27;0.88;;;0.60;;
40022;SDS011;25713;-35.352;149.036;2023-07-09T09:27:02;1.30;;;0.77;;
40022;SDS011;25713;-35.352;149.036;2023-07-09T09:29:34;2.70;;;0.90;;
40022;SDS011;25713;-35.352;149.036;2023-07-09T09:32:11;1.20;;;0.63;;
40022;SDS011;25713;-35.352;149.036;2023-07-09T09:34:48;1.20;;;0.68;;
40022;SDS011;25713;-35.352;149.036;2023-07-09T09:37:23;2.70;;;0.75;;
40022;SDS011;25713;-35.352;149.036;2023-07-09T09:39:54;0.70;;;0.60;;
40022;SDS011;25713;-35.352;149.036;2023-07-09T09:42:24;1.02;;;0.50;;
40022;SDS011;25713;-35.352;149.036;2023-07-09T09:44:55;0.75;;;0.63;;
40022;SDS011;25713;-35.352;149.036;2023-07-09T09:47:26;0.50;;;0.50;;
40022;SDS011;25713;-35.352;149.036;2023-07-09T09:49:56;0.50;;;0.50;;
40022;SDS011;25713;-35.352;149.036;2023-07-09T09:52:26;1.15;;;0.52;;
40022;SDS011;25713;-35.352;149.036;2023-07-09T09:55:02;0.50;;;0.30;;
40022;SDS011;25713;-35.352;149.036;2023-07-09T09:57:38;0.60;;;0.43;;
40022;SDS011;25713;-35.352;149.036;2023-07-09T10:00:15;0.75;;;0.47;;
40022;SDS011;25713;-35.352;149.036;2023-07-09T10:02:45;0.50;;;0.47;;
40022;SDS011;25713;-35.352;149.036;2023-07-09T10:05:15;0.30;;;0.30;;
40022;SDS011;25713;-35.352;149.036;2023-07-09T10:07:52;0.52;;;0.40;;
40022;SDS011;25713;-35.352;149.036;2023-07-09T10:10:30;0.30;;;0.30;;
40022;SDS011;25713;-35.352;149.036;2023-07-09T10:13:05;1.40;;;0.40;;
40022;SDS011;25713;-35.352;149.036;2023-07-09T10:15:45;0.50;;;0.50;;
40022;SDS011;25713;-35.352;149.036;2023-07-09T10:18:27;0.60;;;0.60;;
40022;SDS011;25713;-35.352;149.036;2023-07-09T10:21:07;1.98;;;0.93;;
40022;SDS011;25713;-35.352;149.036;2023-07-09T10:23:44;0.60;;;0.50;;
40022;SDS011;25713;-35.352;149.036;2023-07-09T10:26:20;0.70;;;0.55;;
40022;SDS011;25713;-35.352;149.036;2023-07-09T10:28:58;0.82;;;0.63;;
40022;SDS011;25713;-35.352;149.036;2023-07-09T10:31:49;0.75;;;0.60;;
40022;SDS011;25713;-35.352;149.036;2023-07-09T10:34:27;0.60;;;0.50;;
40022;SDS011;25713;-35.352;149.036;2023-07-09T10:37:08;0.47;;;0.40;;
40022;SDS011;25713;-35.352;149.036;2023-07-09T10:39:49;0.50;;;0.50;;
40022;SDS011;25713;-35.352;149.036;2023-07-09T10:42:22;0.50;;;0.40;;
40022;SDS011;25713;-35.352;149.036;2023-07-09T10:44:54;0.38;;;0.32;;
40022;SDS011;25713;-35.352;149.036;2023-07-09T10:47:31;0.35;;;0.35;;
40022;SDS011;25713;-35.352;149.036;2023-07-09T10:50:05;0.20;;;0.20;;
40022;SDS011;25713;-35.352;149.036;2023-07-09T10:52:41;0.45;;;0.40;;
40022;SDS011;25713;-35.352;149.036;2023-07-09T10:55:15;0.20;;;0.20;;
40022;SDS011;25713;-35.352;149.036;2023-07-09T10:57:51;0.20;;;0.20;;
40022;SDS011;25713;-35.352;149.036;2023-07-09T11:00:34;0.20;;;0.20;;
40022;SDS011;25713;-35.352;149.036;2023-07-09T11:03:10;0.30;;;0.30;;
40022;SDS011;25713;-35.352;149.036;2023-07-09T11:05:44;0.20;;;0.20;;
40022;SDS011;25713;-35.352;149.036;2023-07-09T11:08:14;1.27;;;0.22;;
40022;SDS011;25713;-35.352;149.036;2023-07-09T11:10:48;0.30;;;0.30;;
40022;SDS011;25713;-35.352;149.036;2023-07-09T11:13:22;0.50;;;0.30;;
40022;SDS011;25713;-35.352;149.036;2023-07-09T11:15:55;0.30;;;0.30;;
40022;SDS011;25713;-35.352;149.036;2023-07-09T11:18:30;0.20;;;0.20;;
40022;SDS011;25713;-35.352;149.036;2023-07-09T11:21:00;0.20;;;0.20;;
40022;SDS011;25713;-35.352;149.036;2023-07-09T11:23:37;1.33;;;0.30;;
40022;SDS011;25713;-35.352;149.036;2023-07-09T11:26:12;0.38;;;0.25;;
40022;SDS011;25713;-35.352;149.036;2023-07-09T11:28:46;0.40;;;0.30;;
40022;SDS011;25713;-35.352;149.036;2023-07-09T11:31:22;0.38;;;0.30;;
40022;SDS011;25713;-35.352;149.036;2023-07-09T11:36:48;1.60;;;0.40;;
40022;SDS011;25713;-35.352;149.036;2023-07-09T11:39:21;0.68;;;0.30;;
40022;SDS011;25713;-35.352;149.036;2023-07-09T11:41:55;1.10;;;0.30;;
40022;SDS011;25713;-35.352;149.036;2023-07-09T11:44:25;0.82;;;0.30;;
40022;SDS011;25713;-35.352;149.036;2023-07-09T11:49:52;0.57;;;0.40;;
40022;SDS011;25713;-35.352;149.036;2023-07-09T11:52:25;0.55;;;0.40;;
40022;SDS011;25713;-35.352;149.036;2023-07-09T11:55:01;0.60;;;0.60;;
40022;SDS011;25713;-35.352;149.036;2023-07-09T11:57:47;1.27;;;0.40;;
40022;SDS011;25713;-35.352;149.036;2023-07-09T12:00:20;0.88;;;0.40;;
40022;SDS011;25713;-35.352;149.036;2023-07-09T12:02:50;1.27;;;0.30;;
40022;SDS011;25713;-35.352;149.036;2023-07-09T12:05:36;1.40;;;0.35;;
40022;SDS011;25713;-35.352;149.036;2023-07-09T12:08:26;0.57;;;0.40;;
40022;SDS011;25713;-35.352;149.036;2023-07-09T12:11:00;1.15;;;0.30;;
40022;SDS011;25713;-35.352;149.036;2023-07-09T12:13:36;0.30;;;0.20;;
40022;SDS011;25713;-35.352;149.036;2023-07-09T12:16:18;0.25;;;0.25;;
40022;SDS011;25713;-35.352;149.036;2023-07-09T12:21:31;0.20;;;0.20;;
40022;SDS011;25713;-35.352;149.036;2023-07-09T12:24:11;0.30;;;0.30;;
40022;SDS011;25713;-35.352;149.036;2023-07-09T12:26:47;0.20;;;0.20;;
40022;SDS011;25713;-35.352;149.036;2023-07-09T12:29:17;0.80;;;0.40;;
40022;SDS011;25713;-35.352;149.036;2023-07-09T12:31:47;1.52;;;0.20;;
40022;SDS011;25713;-35.352;149.036;2023-07-09T12:34:16;0.20;;;0.10;;
40022;SDS011;25713;-35.352;149.036;2023-07-09T12:36:52;0.20;;;0.20;;
40022;SDS011;25713;-35.352;149.036;2023-07-09T12:51:20;0.28;;;0.28;;
40022;SDS011;25713;-35.352;149.036;2023-07-09T12:54:05;0.40;;;0.30;;
40022;SDS011;25713;-35.352;149.036;2023-07-09T12:56:41;0.50;;;0.30;;
40022;SDS011;25713;-35.352;149.036;2023-07-09T12:59:16;0.32;;;0.20;;
40022;SDS011;25713;-35.352;149.036;2023-07-09T13:01:54;0.20;;;0.20;;
40022;SDS011;25713;-35.352;149.036;2023-07-09T13:04:28;0.30;;;0.20;;
40022;SDS011;25713;-35.352;149.036;2023-07-09T13:06:58;0.20;;;0.20;;
40022;SDS011;25713;-35.352;149.036;2023-07-09T13:22:18;0.10;;;0.10;;
40022;SDS011;25713;-35.352;149.036;2023-07-09T13:24:48;0.60;;;0.10;;
40022;SDS011;25713;-35.352;149.036;2023-07-09T13:27:18;0.00;;;0.00;;
40022;SDS011;25713;-35.352;149.036;2023-07-09T13:53:09;0.00;;;0.00;;
40022;SDS011;25713;-35.352;149.036;2023-07-09T13:55:43;0.00;;;0.00;;
40022;SDS011;25713;-35.352;149.036;2023-07-09T14:00:45;1.05;;;0.17;;
40022;SDS011;25713;-35.352;149.036;2023-07-09T14:03:18;0.17;;;0.15;;
40022;SDS011;25713;-35.352;149.036;2023-07-09T14:05:48;0.25;;;0.20;;
40022;SDS011;25713;-35.352;149.036;2023-07-09T14:08:21;0.10;;;0.10;;
40022;SDS011;25713;-35.352;149.036;2023-07-09T14:14:45;0.10;;;0.10;;
40022;SDS011;25713;-35.352;149.036;2023-07-09T14:17:16;0.20;;;0.15;;
40022;SDS011;25713;-35.352;149.036;2023-07-09T14:19:46;0.40;;;0.20;;
40022;SDS011;25713;-35.352;149.036;2023-07-09T14:22:20;0.00;;;0.00;;
40022;SDS011;25713;-35.352;149.036;2023-07-09T14:24:56;0.03;;;0.03;;
40022;SDS011;25713;-35.352;149.036;2023-07-09T14:27:26;0.10;;;0.10;;
40022;SDS011;25713;-35.352;149.036;2023-07-09T14:29:56;0.15;;;0.10;;
40022;SDS011;25713;-35.352;149.036;2023-07-09T14:32:33;0.05;;;0.00;;
40022;SDS011;25713;-35.352;149.036;2023-07-09T14:35:09;0.10;;;0.10;;
40022;SDS011;25713;-35.352;149.036;2023-07-09T16:20:27;0.30;;;0.10;;
40022;SDS011;25713;-35.352;149.036;2023-07-09T16:59:12;0.68;;;0.10;;
40022;SDS011;25713;-35.352;149.036;2023-07-09T17:01:42;0.35;;;0.10;;
40022;SDS011;25713;-35.352;149.036;2023-07-09T17:04:16;0.10;;;0.10;;
40022;SDS011;25713;-35.352;149.036;2023-07-09T17:06:50;0.30;;;0.15;;
40022;SDS011;25713;-35.352;149.036;2023-07-09T17:09:20;0.10;;;0.10;;
40022;SDS011;25713;-35.352;149.036;2023-07-09T17:16:18;0.10;;;0.10;;
40022;SDS011;25713;-35.352;149.036;2023-07-09T17:18:48;1.05;;;0.40;;
40022;SDS011;25713;-35.352;149.036;2023-07-09T17:21:17;0.00;;;0.00;;
40022;SDS011;25713;-35.352;149.036;2023-07-09T17:23:47;0.30;;;0.15;;
40022;SDS011;25713;-35.352;149.036;2023-07-09T17:42:40;0.10;;;0.10;;
40022;SDS011;25713;-35.352;149.036;2023-07-09T17:45:11;0.10;;;0.10;;
40022;SDS011;25713;-35.352;149.036;2023-07-09T17:51:29;0.00;;;0.00;;
40022;SDS011;25713;-35.352;149.036;2023-07-09T17:58:40;0.30;;;0.03;;
40022;SDS011;25713;-35.352;149.036;2023-07-09T18:01:10;0.10;;;0.10;;
40022;SDS011;25713;-35.352;149.036;2023-07-09T18:03:40;0.32;;;0.10;;
40022;SDS011;25713;-35.352;149.036;2023-07-09T18:10:34;0.10;;;0.10;;
40022;SDS011;25713;-35.352;149.036;2023-07-09T18:14:09;0.88;;;0.05;;
40022;SDS011;25713;-35.352;149.036;2023-07-09T18:16:49;0.10;;;0.10;;
40022;SDS011;25713;-35.352;149.036;2023-07-09T18:19:20;0.38;;;0.10;;
40022;SDS011;25713;-35.352;149.036;2023-07-09T18:21:52;0.10;;;0.10;;
40022;SDS011;25713;-35.352;149.036;2023-07-09T18:24:26;0.25;;;0.10;;
40022;SDS011;25713;-35.352;149.036;2023-07-09T18:26:56;0.00;;;0.00;;
40022;SDS011;25713;-35.352;149.036;2023-07-09T18:29:29;0.00;;;0.00;;
40022;SDS011;25713;-35.352;149.036;2023-07-09T18:32:01;0.00;;;0.00;;
40022;SDS011;25713;-35.352;149.036;2023-07-09T18:34:31;0.00;;;0.00;;
40022;SDS011;25713;-35.352;149.036;2023-07-09T18:37:01;0.47;;;0.00;;
40022;SDS011;25713;-35.352;149.036;2023-07-09T18:39:31;0.00;;;0.00;;
40022;SDS011;25713;-35.352;149.036;2023-07-09T18:42:01;0.10;;;0.00;;
40022;SDS011;25713;-35.352;149.036;2023-07-09T18:44:34;0.00;;;0.00;;
40022;SDS011;25713;-35.352;149.036;2023-07-09T18:47:08;0.00;;;0.00;;